Time,TemperatureF,DewpointF,PressureIn,WindDirection,WindDirectionDegrees,WindSpeedMPH,WindSpeedGustMPH,Humidity,HourlyPrecipIn,Conditions,Clouds,dailyrainin,SoftwareType,DateUTC
2013-02-26 00:01:00,25.0,19.0,-100.00,North,8,1.0,3.0,79,-99.99,,,-99.99,,2013-02-26 08:01:00,
2013-02-26 00:11:00,24.0,18.0,-100.00,North,3,1.0,3.0,79,-99.99,,,-99.99,,2013-02-26 08:11:00,
2013-02-26 00:21:00,24.0,18.0,-100.00,North,3,1.0,3.0,79,-99.99,,,-99.99,,2013-02-26 08:21:00,
2013-02-26 00:31:00,24.0,18.0,-100.00,NE,47,2.0,5.0,79,-99.99,,,-99.99,,2013-02-26 08:31:00,
2013-02-26 00:41:00,24.0,18.0,-100.00,NE,34,3.0,5.0,79,-99.99,,,-99.99,,2013-02-26 08:41:00,
2013-02-26 00:52:00,24.0,18.0,-100.00,NE,34,3.0,5.0,79,-99.99,,,-99.99,,2013-02-26 08:52:00,
2013-02-26 01:01:00,24.0,18.0,-100.00,NNE,14,2.0,7.0,78,-99.99,,,-99.99,,2013-02-26 09:01:00,
2013-02-26 01:11:00,24.0,19.0,-100.00,NE,40,1.0,3.0,81,-99.99,,,-99.99,,2013-02-26 09:11:00,
2013-02-26 01:21:00,24.0,19.0,-100.00,NE,40,1.0,3.0,81,-99.99,,,-99.99,,2013-02-26 09:21:00,
2013-02-26 01:31:00,23.0,18.0,-100.00,NNE,14,2.0,3.0,81,-99.99,,,-99.99,,2013-02-26 09:31:00,
2013-02-26 01:43:00,23.0,19.0,-100.00,NNE,24,2.0,3.0,82,-99.99,,,-99.99,,2013-02-26 09:43:00,
2013-02-26 01:51:00,23.0,18.0,-100.00,North,356,1.0,4.0,81,-99.99,,,-99.99,,2013-02-26 09:51:00,
2013-02-26 02:01:00,23.0,18.0,-100.00,NNE,30,2.0,3.0,81,-99.99,,,-99.99,,2013-02-26 10:01:00,
2013-02-26 02:11:00,23.0,17.0,-100.00,NE,38,2.0,4.0,77,-99.99,,,-99.99,,2013-02-26 10:11:00,
2013-02-26 02:21:00,23.0,17.0,-100.00,NE,38,2.0,4.0,77,-99.99,,,-99.99,,2013-02-26 10:21:00,
2013-02-26 02:31:00,23.0,16.0,-100.00,NNE,24,3.0,4.0,74,-99.99,,,-99.99,,2013-02-26 10:31:00,
2013-02-26 02:41:00,23.0,15.0,-100.00,NNE,32,2.0,4.0,71,-99.99,,,-99.99,,2013-02-26 10:41:00,
2013-02-26 02:52:00,23.0,14.0,-100.00,NNE,24,2.0,4.0,69,-99.99,,,-99.99,,2013-02-26 10:52:00,
2013-02-26 03:01:00,27.0,13.0,-100.00,North,6,3.0,9.0,54,-99.99,,,-99.99,,2013-02-26 11:01:00,
2013-02-26 03:11:00,27.0,13.0,-100.00,North,6,3.0,9.0,54,-99.99,,,-99.99,,2013-02-26 11:11:00,
2013-02-26 03:21:00,28.0,12.0,-100.00,North,11,4.0,11.0,50,-99.99,,,-99.99,,2013-02-26 11:21:00,
2013-02-26 03:31:00,24.0,10.0,-100.00,ESE,116,2.0,4.0,54,-99.99,,,-99.99,,2013-02-26 11:31:00,
2013-02-26 03:41:00,25.0,11.0,-100.00,East,90,2.0,4.0,56,-99.99,,,-99.99,,2013-02-26 11:41:00,
2013-02-26 03:52:00,25.0,12.0,-100.00,East,92,2.0,5.0,56,-99.99,,,-99.99,,2013-02-26 11:52:00,
2013-02-26 04:01:00,25.0,12.0,-100.00,ENE,78,1.0,6.0,57,-99.99,,,-99.99,,2013-02-26 12:01:00,
2013-02-26 04:11:00,25.0,12.0,-100.00,ENE,78,1.0,6.0,57,-99.99,,,-99.99,,2013-02-26 12:11:00,
2013-02-26 04:22:00,25.0,12.0,-100.00,NE,37,2.0,6.0,57,-99.99,,,-99.99,,2013-02-26 12:22:00,
2013-02-26 04:32:00,26.0,11.0,-100.00,NNE,13,3.0,9.0,53,-99.99,,,-99.99,,2013-02-26 12:32:00,
2013-02-26 04:42:00,26.0,12.0,-100.00,NNE,16,3.0,9.0,56,-99.99,,,-99.99,,2013-02-26 12:42:00,
2013-02-26 04:52:00,26.0,10.0,-100.00,NNE,28,3.0,8.0,51,-99.99,,,-99.99,,2013-02-26 12:52:00,
2013-02-26 05:01:00,27.0,11.0,-100.00,NNE,20,5.0,11.0,51,-99.99,,,-99.99,,2013-02-26 13:01:00,
2013-02-26 05:11:00,27.0,11.0,-100.00,NNE,20,5.0,11.0,51,-99.99,,,-99.99,,2013-02-26 13:11:00,
2013-02-26 05:21:00,27.0,10.0,-100.00,NNE,14,4.0,10.0,49,-99.99,,,-99.99,,2013-02-26 13:21:00,
2013-02-26 05:31:00,26.0,9.0,-100.00,NNE,14,5.0,14.0,48,-99.99,,,-99.99,,2013-02-26 13:31:00,
2013-02-26 05:42:00,26.0,9.0,-100.00,NNE,14,5.0,14.0,48,-99.99,,,-99.99,,2013-02-26 13:42:00,
2013-02-26 05:51:00,26.0,9.0,-100.00,NNE,13,6.0,13.0,49,-99.99,,,-99.99,,2013-02-26 13:51:00,
2013-02-26 06:01:00,25.0,9.0,-100.00,NNE,18,6.0,15.0,50,-99.99,,,-99.99,,2013-02-26 14:01:00,
2013-02-26 06:11:00,25.0,9.0,-100.00,NE,44,5.0,14.0,50,-99.99,,,-99.99,,2013-02-26 14:11:00,
2013-02-26 06:21:00,25.0,9.0,-100.00,NNE,31,7.0,15.0,51,-99.99,,,-99.99,,2013-02-26 14:21:00,
2013-02-26 06:31:00,24.0,9.0,-100.00,NNE,13,6.0,17.0,51,-99.99,,,-99.99,,2013-02-26 14:31:00,
2013-02-26 06:42:00,24.0,8.0,-100.00,North,11,7.0,17.0,51,-99.99,,,-99.99,,2013-02-26 14:42:00,
2013-02-26 06:52:00,24.0,9.0,-100.00,NNE,14,7.0,16.0,51,-99.99,,,-99.99,,2013-02-26 14:52:00,
2013-02-26 07:02:00,24.0,9.0,-100.00,North,8,5.0,15.0,51,-99.99,,,-99.99,,2013-02-26 15:02:00,
2013-02-26 07:11:00,24.0,9.0,-100.00,NE,38,6.0,17.0,51,-99.99,,,-99.99,,2013-02-26 15:11:00,
2013-02-26 07:21:00,24.0,9.0,-100.00,NE,38,6.0,17.0,51,-99.99,,,-99.99,,2013-02-26 15:21:00,
2013-02-26 07:32:00,24.0,9.0,-100.00,NNE,30,7.0,19.0,53,-99.99,,,-99.99,,2013-02-26 15:32:00,
2013-02-26 07:41:00,23.0,10.0,-100.00,NNE,28,6.0,17.0,55,-99.99,,,-99.99,,2013-02-26 15:41:00,
2013-02-26 07:51:00,23.0,9.0,-100.00,NNE,14,8.0,21.0,55,-99.99,,,-99.99,,2013-02-26 15:51:00,
2013-02-26 08:01:00,23.0,9.0,-100.00,NNE,14,7.0,20.0,54,-99.99,,,-99.99,,2013-02-26 16:01:00,
2013-02-26 08:11:00,23.0,9.0,-100.00,NNE,14,7.0,20.0,54,-99.99,,,-99.99,,2013-02-26 16:11:00,
2013-02-26 08:22:00,24.0,10.0,-100.00,NNE,16,7.0,15.0,53,-99.99,,,-99.99,,2013-02-26 16:22:00,
2013-02-26 08:31:00,25.0,9.0,-100.00,NE,35,5.0,14.0,50,-99.99,,,-99.99,,2013-02-26 16:31:00,
2013-02-26 08:42:00,25.0,9.0,-100.00,NE,34,5.0,14.0,50,-99.99,,,-99.99,,2013-02-26 16:42:00,
2013-02-26 08:52:00,26.0,9.0,-100.00,NE,40,5.0,12.0,48,-99.99,,,-99.99,,2013-02-26 16:52:00,
2013-02-26 09:01:00,27.0,10.0,-100.00,NNE,30,5.0,14.0,48,-99.99,,,-99.99,,2013-02-26 17:01:00,
2013-02-26 09:11:00,27.0,10.0,-100.00,NNE,30,5.0,14.0,48,-99.99,,,-99.99,,2013-02-26 17:11:00,
2013-02-26 09:21:00,28.0,11.0,-100.00,NE,44,4.0,12.0,48,-99.99,,,-99.99,,2013-02-26 17:21:00,
2013-02-26 09:32:00,28.0,10.0,-100.00,NE,48,5.0,15.0,47,-99.99,,,-99.99,,2013-02-26 17:32:00,
2013-02-26 09:41:00,29.0,10.0,-100.00,NE,42,3.0,15.0,46,-99.99,,,-99.99,,2013-02-26 17:41:00,
2013-02-26 09:52:00,30.0,11.0,-100.00,NNE,32,5.0,14.0,44,-99.99,,,-99.99,,2013-02-26 17:52:00,
2013-02-26 10:01:00,30.0,12.0,-100.00,NNE,23,5.0,13.0,46,-99.99,,,-99.99,,2013-02-26 18:01:00,
2013-02-26 10:12:00,30.0,12.0,-100.00,NNE,23,5.0,13.0,46,-99.99,,,-99.99,,2013-02-26 18:12:00,
2013-02-26 10:21:00,30.0,12.0,-100.00,NNE,23,5.0,13.0,46,-99.99,,,-99.99,,2013-02-26 18:21:00,
2013-02-26 10:32:00,30.0,12.0,-100.00,NNE,18,7.0,16.0,46,-99.99,,,-99.99,,2013-02-26 18:32:00,
2013-02-26 10:42:00,30.0,11.0,-100.00,NNE,27,7.0,15.0,46,-99.99,,,-99.99,,2013-02-26 18:42:00,
2013-02-26 10:52:00,30.0,10.0,-100.00,NNE,32,6.0,17.0,43,-99.99,,,-99.99,,2013-02-26 18:52:00,
2013-02-26 11:01:00,32.0,9.0,-100.00,NNE,17,6.0,13.0,38,-99.99,,,-99.99,,2013-02-26 19:01:00,
2013-02-26 11:11:00,32.0,9.0,-100.00,NNE,17,6.0,13.0,38,-99.99,,,-99.99,,2013-02-26 19:11:00,
2013-02-26 11:22:00,33.0,3.0,-100.00,NNE,27,5.0,13.0,28,-99.99,,,-99.99,,2013-02-26 19:22:00,
2013-02-26 11:41:00,35.0,3.0,-100.00,NE,49,4.0,12.0,25,-99.99,,,-99.99,,2013-02-26 19:41:00,
2013-02-26 11:52:00,35.0,2.0,-100.00,NE,42,5.0,12.0,24,-99.99,,,-99.99,,2013-02-26 19:52:00,
2013-02-26 12:01:00,35.0,0.0,-100.00,NNE,14,5.0,12.0,22,-99.99,,,-99.99,,2013-02-26 20:01:00,
2013-02-26 12:21:00,36.0,0.0,-100.00,NNE,28,5.0,13.0,21,-99.99,,,-99.99,,2013-02-26 20:21:00,
2013-02-26 12:31:00,36.0,0.0,-100.00,NNE,28,5.0,13.0,21,-99.99,,,-99.99,,2013-02-26 20:31:00,
2013-02-26 13:21:00,37.0,-4.0,-100.00,NNE,31,6.0,15.0,17,-99.99,,,-99.99,,2013-02-26 21:21:00,
2013-02-26 13:31:00,37.0,-4.0,-100.00,NNE,31,6.0,15.0,17,-99.99,,,-99.99,,2013-02-26 21:31:00,
2013-02-26 13:51:00,38.0,-5.0,-100.00,NNE,31,7.0,15.0,15,-99.99,,,-99.99,,2013-02-26 21:51:00,
2013-02-26 14:01:00,39.0,-8.0,-100.00,ENE,71,6.0,17.0,13,-99.99,,,-99.99,,2013-02-26 22:01:00,
2013-02-26 14:21:00,38.0,-5.0,-100.00,NE,48,7.0,18.0,15,-99.99,,,-99.99,,2013-02-26 22:21:00,
2013-02-26 14:31:00,38.0,-7.0,-100.00,NE,51,8.0,18.0,14,-99.99,,,-99.99,,2013-02-26 22:31:00,
2013-02-26 14:41:00,38.0,-10.0,-100.00,NE,52,7.0,19.0,12,-99.99,,,-99.99,,2013-02-26 22:41:00,
2013-02-26 14:52:00,38.0,-7.0,-100.00,NE,44,7.0,17.0,14,-99.99,,,-99.99,,2013-02-26 22:52:00,
2013-02-26 15:01:00,38.0,-7.0,-100.00,NE,41,8.0,20.0,14,-99.99,,,-99.99,,2013-02-26 23:01:00,
2013-02-26 15:11:00,39.0,-3.0,-100.00,NNE,31,6.0,18.0,16,-99.99,,,-99.99,,2013-02-26 23:11:00,
2013-02-26 15:21:00,38.0,-7.0,-100.00,NNE,16,7.0,15.0,14,-99.99,,,-99.99,,2013-02-26 23:21:00,
2013-02-26 15:31:00,38.0,-5.0,-100.00,NNE,25,6.0,14.0,15,-99.99,,,-99.99,,2013-02-26 23:31:00,
2013-02-26 15:41:00,38.0,-5.0,-100.00,NNE,25,6.0,14.0,15,-99.99,,,-99.99,,2013-02-26 23:41:00,
2013-02-26 15:52:00,38.0,-5.0,-100.00,NE,42,6.0,15.0,15,-99.99,,,-99.99,,2013-02-26 23:52:00,
2013-02-26 16:01:00,39.0,-6.0,-100.00,North,10,5.0,12.0,14,-99.99,,,-99.99,,2013-02-27 00:01:00,
2013-02-26 16:21:00,39.0,-5.0,-100.00,ENE,58,6.0,17.0,15,-99.99,,,-99.99,,2013-02-27 00:21:00,
2013-02-26 16:31:00,39.0,-6.0,-100.00,NE,54,6.0,13.0,14,-99.99,,,-99.99,,2013-02-27 00:31:00,
2013-02-26 16:41:00,39.0,-6.0,-100.00,NE,54,6.0,13.0,14,-99.99,,,-99.99,,2013-02-27 00:41:00,
2013-02-26 16:52:00,39.0,0.0,-100.00,NNE,18,6.0,13.0,19,-99.99,,,-99.99,,2013-02-27 00:52:00,
2013-02-26 17:01:00,38.0,-1.0,-100.00,NNE,25,6.0,16.0,19,-99.99,,,-99.99,,2013-02-27 01:01:00,
2013-02-26 17:11:00,38.0,2.0,-100.00,North,11,6.0,13.0,21,-99.99,,,-99.99,,2013-02-27 01:11:00,
2013-02-26 17:21:00,37.0,4.0,-100.00,NNE,18,5.0,13.0,24,-99.99,,,-99.99,,2013-02-27 01:21:00,
2013-02-26 17:31:00,37.0,4.0,-100.00,NNE,18,5.0,13.0,24,-99.99,,,-99.99,,2013-02-27 01:31:00,
2013-02-26 17:41:00,36.0,4.0,-100.00,NNE,21,4.0,11.0,25,-99.99,,,-99.99,,2013-02-27 01:41:00,
2013-02-26 17:52:00,36.0,5.0,-100.00,North,4,5.0,13.0,27,-99.99,,,-99.99,,2013-02-27 01:52:00,
2013-02-26 18:01:00,36.0,5.0,-100.00,North,8,4.0,11.0,27,-99.99,,,-99.99,,2013-02-27 02:01:00,
2013-02-26 18:13:00,35.0,4.0,-100.00,North,11,4.0,9.0,27,-99.99,,,-99.99,,2013-02-27 02:13:00,
2013-02-26 18:22:00,35.0,7.0,-100.00,North,11,4.0,10.0,30,-99.99,,,-99.99,,2013-02-27 02:22:00,
2013-02-26 18:32:00,35.0,7.0,-100.00,North,11,4.0,10.0,30,-99.99,,,-99.99,,2013-02-27 02:32:00,
2013-02-26 18:41:00,34.0,5.0,-100.00,North,10,4.0,11.0,29,-99.99,,,-99.99,,2013-02-27 02:41:00,
2013-02-26 18:52:00,33.0,6.0,-100.00,North,3,4.0,10.0,31,-99.99,,,-99.99,,2013-02-27 02:52:00,
2013-02-26 19:01:00,33.0,6.0,-100.00,North,11,4.0,10.0,31,-99.99,,,-99.99,,2013-02-27 03:01:00,
2013-02-26 19:11:00,33.0,6.0,-100.00,NNE,20,5.0,15.0,31,-99.99,,,-99.99,,2013-02-27 03:11:00,
2013-02-26 19:21:00,32.0,6.0,-100.00,North,8,3.0,7.0,33,-99.99,,,-99.99,,2013-02-27 03:21:00,
2013-02-26 19:31:00,32.0,6.0,-100.00,North,8,3.0,7.0,33,-99.99,,,-99.99,,2013-02-27 03:31:00,
2013-02-26 19:41:00,33.0,3.0,-100.00,NNW,337,3.0,6.0,27,-99.99,,,-99.99,,2013-02-27 03:41:00,
2013-02-26 19:52:00,33.0,-1.0,-100.00,WNW,299,4.0,9.0,23,-99.99,,,-99.99,,2013-02-27 03:52:00,
2013-02-26 20:01:00,33.0,3.0,-100.00,NW,305,4.0,8.0,27,-99.99,,,-99.99,,2013-02-27 04:01:00,
2013-02-26 20:11:00,34.0,-3.0,-100.00,NW,322,4.0,13.0,20,-99.99,,,-99.99,,2013-02-27 04:11:00,
2013-02-26 20:21:00,32.0,3.0,-100.00,WNW,292,5.0,9.0,28,-99.99,,,-99.99,,2013-02-27 04:21:00,
2013-02-26 20:31:00,32.0,3.0,-100.00,WNW,292,5.0,9.0,28,-99.99,,,-99.99,,2013-02-27 04:31:00,
2013-02-26 20:41:00,32.0,3.0,-100.00,WNW,292,5.0,9.0,28,-99.99,,,-99.99,,2013-02-27 04:41:00,
2013-02-26 21:01:00,33.0,-3.0,-100.00,NW,316,4.0,9.0,21,-99.99,,,-99.99,,2013-02-27 05:01:00,
2013-02-26 21:11:00,32.0,-1.0,-100.00,NW,313,3.0,9.0,24,-99.99,,,-99.99,,2013-02-27 05:11:00,
2013-02-26 21:22:00,33.0,-3.0,-100.00,WNW,292,5.0,11.0,21,-99.99,,,-99.99,,2013-02-27 05:22:00,
2013-02-26 21:32:00,33.0,-3.0,-100.00,WNW,292,5.0,11.0,21,-99.99,,,-99.99,,2013-02-27 05:32:00,
2013-02-26 21:41:00,34.0,-3.0,-100.00,NNW,346,4.0,9.0,20,-99.99,,,-99.99,,2013-02-27 05:41:00,
2013-02-26 21:52:00,35.0,-3.0,-100.00,NNW,337,4.0,11.0,19,-99.99,,,-99.99,,2013-02-27 05:52:00,
2013-02-26 22:02:00,34.0,-3.0,-100.00,North,349,3.0,9.0,20,-99.99,,,-99.99,,2013-02-27 06:02:00,
2013-02-26 22:11:00,34.0,-2.0,-100.00,North,360,3.0,7.0,21,-99.99,,,-99.99,,2013-02-27 06:11:00,
2013-02-26 22:21:00,31.0,5.0,-100.00,North,353,3.0,5.0,33,-99.99,,,-99.99,,2013-02-27 06:21:00,
2013-02-26 22:32:00,31.0,5.0,-100.00,North,353,3.0,5.0,33,-99.99,,,-99.99,,2013-02-27 06:32:00,
2013-02-26 22:41:00,28.0,6.0,-100.00,East,82,1.0,3.0,39,-99.99,,,-99.99,,2013-02-27 06:41:00,
2013-02-26 22:52:00,28.0,7.0,-100.00,NNE,21,2.0,4.0,40,-99.99,,,-99.99,,2013-02-27 06:52:00,
2013-02-26 23:01:00,27.0,7.0,-100.00,NNE,30,2.0,4.0,42,-99.99,,,-99.99,,2013-02-27 07:01:00,
2013-02-26 23:12:00,27.0,8.0,-100.00,NE,41,2.0,5.0,44,-99.99,,,-99.99,,2013-02-27 07:12:00,
2013-02-26 23:21:00,26.0,8.0,-100.00,NE,38,2.0,5.0,45,-99.99,,,-99.99,,2013-02-27 07:21:00,
2013-02-26 23:31:00,26.0,8.0,-100.00,NE,38,2.0,5.0,45,-99.99,,,-99.99,,2013-02-27 07:31:00,
2013-02-26 23:41:00,25.0,7.0,-100.00,NE,37,1.0,3.0,45,-99.99,,,-99.99,,2013-02-27 07:41:00,
2013-02-26 23:52:00,26.0,9.0,-100.00,NE,44,2.0,3.0,47,-99.99,,,-99.99,,2013-02-27 07:52:00,